sensor_id;sensor_type;location;lat;lon;timestamp;P1;durP1;ratioP1;P2;durP2;ratioP2
62740;SDS011;48790;55.656;37.702;2022-08-16T00:00:23;20.42;;;10.43;;
62740;SDS011;48790;55.656;37.702;2022-08-16T00:02:51;22.60;;;11.23;;
62740;SDS011;48790;55.656;37.702;2022-08-16T00:05:17;18.55;;;9.48;;
62740;SDS011;48790;55.656;37.702;2022-08-16T00:07:44;20.77;;;10.23;;
62740;SDS011;48790;55.656;37.702;2022-08-16T00:10:11;17.52;;;10.77;;
62740;SDS011;48790;55.656;37.702;2022-08-16T00:12:39;15.00;;;9.80;;
62740;SDS011;48790;55.656;37.702;2022-08-16T00:15:09;16.15;;;9.32;;
62740;SDS011;48790;55.656;37.702;2022-08-16T00:17:40;16.75;;;9.90;;
62740;SDS011;48790;55.656;37.702;2022-08-16T00:20:07;19.88;;;9.60;;
62740;SDS011;48790;55.656;37.702;2022-08-16T00:22:34;16.05;;;9.55;;
62740;SDS011;48790;55.656;37.702;2022-08-16T00:25:02;17.98;;;9.68;;
62740;SDS011;48790;55.656;37.702;2022-08-16T00:27:30;19.10;;;9.25;;
62740;SDS011;48790;55.656;37.702;2022-08-16T00:29:56;16.67;;;9.02;;
62740;SDS011;48790;55.656;37.702;2022-08-16T00:32:23;14.00;;;8.55;;
62740;SDS011;48790;55.656;37.702;2022-08-16T00:34:49;18.50;;;9.25;;
62740;SDS011;48790;55.656;37.702;2022-08-16T00:37:15;15.52;;;8.82;;
62740;SDS011;48790;55.656;37.702;2022-08-16T00:39:41;22.15;;;9.75;;
62740;SDS011;48790;55.656;37.702;2022-08-16T00:42:07;15.98;;;8.95;;
62740;SDS011;48790;55.656;37.702;2022-08-16T00:44:33;19.15;;;8.75;;
62740;SDS011;48790;55.656;37.702;2022-08-16T00:47:02;20.40;;;8.63;;
62740;SDS011;48790;55.656;37.702;2022-08-16T00:49:34;18.33;;;8.13;;
62740;SDS011;48790;55.656;37.702;2022-08-16T00:52:00;14.38;;;8.43;;
62740;SDS011;48790;55.656;37.702;2022-08-16T00:54:27;15.88;;;8.25;;
62740;SDS011;48790;55.656;37.702;2022-08-16T00:56:54;18.15;;;8.57;;
62740;SDS011;48790;55.656;37.702;2022-08-16T00:59:22;16.65;;;8.38;;
62740;SDS011;48790;55.656;37.702;2022-08-16T01:01:50;15.18;;;7.78;;
62740;SDS011;48790;55.656;37.702;2022-08-16T01:04:18;21.23;;;8.45;;
62740;SDS011;48790;55.656;37.702;2022-08-16T01:06:46;22.27;;;8.60;;
62740;SDS011;48790;55.656;37.702;2022-08-16T01:09:13;15.18;;;8.18;;
62740;SDS011;48790;55.656;37.702;2022-08-16T01:11:40;18.38;;;7.93;;
62740;SDS011;48790;55.656;37.702;2022-08-16T01:14:17;17.90;;;8.15;;
62740;SDS011;48790;55.656;37.702;2022-08-16T01:16:45;17.98;;;8.40;;
62740;SDS011;48790;55.656;37.702;2022-08-16T01:22:00;16.92;;;7.55;;
62740;SDS011;48790;55.656;37.702;2022-08-16T01:27:11;23.58;;;8.43;;
62740;SDS011;48790;55.656;37.702;2022-08-16T01:29:41;17.60;;;7.75;;
62740;SDS011;48790;55.656;37.702;2022-08-16T01:32:12;26.50;;;8.13;;
62740;SDS011;48790;55.656;37.702;2022-08-16T01:34:38;21.88;;;7.63;;
62740;SDS011;48790;55.656;37.702;2022-08-16T01:37:06;22.83;;;8.07;;
62740;SDS011;48790;55.656;37.702;2022-08-16T01:39:34;16.70;;;7.85;;
62740;SDS011;48790;55.656;37.702;2022-08-16T01:42:01;13.40;;;7.10;;
62740;SDS011;48790;55.656;37.702;2022-08-16T01:44:29;14.45;;;7.25;;
62740;SDS011;48790;55.656;37.702;2022-08-16T01:46:55;17.02;;;7.57;;
62740;SDS011;48790;55.656;37.702;2022-08-16T01:49:24;13.95;;;7.40;;
62740;SDS011;48790;55.656;37.702;2022-08-16T01:51:54;15.45;;;7.60;;
62740;SDS011;48790;55.656;37.702;2022-08-16T01:54:31;15.65;;;7.07;;
62740;SDS011;48790;55.656;37.702;2022-08-16T01:56:59;13.68;;;7.38;;
62740;SDS011;48790;55.656;37.702;2022-08-16T01:59:26;17.10;;;7.30;;
62740;SDS011;48790;55.656;37.702;2022-08-16T02:01:53;18.35;;;7.00;;
62740;SDS011;48790;55.656;37.702;2022-08-16T02:04:21;16.75;;;7.15;;
62740;SDS011;48790;55.656;37.702;2022-08-16T02:06:48;17.65;;;6.80;;
62740;SDS011;48790;55.656;37.702;2022-08-16T02:09:19;14.88;;;7.03;;
62740;SDS011;48790;55.656;37.702;2022-08-16T02:11:53;14.02;;;7.13;;
62740;SDS011;48790;55.656;37.702;2022-08-16T02:14:21;14.07;;;7.32;;
62740;SDS011;48790;55.656;37.702;2022-08-16T02:16:50;17.60;;;7.40;;
62740;SDS011;48790;55.656;37.702;2022-08-16T02:19:17;16.35;;;7.70;;
62740;SDS011;48790;55.656;37.702;2022-08-16T02:21:45;12.38;;;6.90;;
62740;SDS011;48790;55.656;37.702;2022-08-16T02:24:15;12.15;;;6.68;;
62740;SDS011;48790;55.656;37.702;2022-08-16T02:26:42;16.98;;;7.20;;
62740;SDS011;48790;55.656;37.702;2022-08-16T02:29:09;14.23;;;6.88;;
62740;SDS011;48790;55.656;37.702;2022-08-16T02:31:35;15.25;;;6.95;;
62740;SDS011;48790;55.656;37.702;2022-08-16T02:34:01;17.20;;;6.72;;
62740;SDS011;48790;55.656;37.702;2022-08-16T02:36:34;17.40;;;6.80;;
62740;SDS011;48790;55.656;37.702;2022-08-16T02:39:01;10.52;;;6.35;;
62740;SDS011;48790;55.656;37.702;2022-08-16T02:41:28;15.68;;;6.72;;
62740;SDS011;48790;55.656;37.702;2022-08-16T02:43:54;12.18;;;6.28;;
62740;SDS011;48790;55.656;37.702;2022-08-16T02:46:20;13.82;;;7.03;;
62740;SDS011;48790;55.656;37.702;2022-08-16T02:48:47;11.77;;;6.40;;
62740;SDS011;48790;55.656;37.702;2022-08-16T02:51:13;19.80;;;6.35;;
62740;SDS011;48790;55.656;37.702;2022-08-16T02:53:41;19.85;;;7.28;;
62740;SDS011;48790;55.656;37.702;2022-08-16T02:56:10;19.95;;;7.38;;
62740;SDS011;48790;55.656;37.702;2022-08-16T02:58:39;13.10;;;7.00;;
62740;SDS011;48790;55.656;37.702;2022-08-16T03:01:06;12.30;;;6.72;;
62740;SDS011;48790;55.656;37.702;2022-08-16T03:03:34;14.93;;;7.05;;
62740;SDS011;48790;55.656;37.702;2022-08-16T03:06:02;14.93;;;6.78;;
62740;SDS011;48790;55.656;37.702;2022-08-16T03:08:28;11.73;;;6.55;;
62740;SDS011;48790;55.656;37.702;2022-08-16T03:10:54;21.77;;;7.40;;
62740;SDS011;48790;55.656;37.702;2022-08-16T03:13:20;18.70;;;6.68;;
62740;SDS011;48790;55.656;37.702;2022-08-16T03:15:48;13.18;;;6.70;;
62740;SDS011;48790;55.656;37.702;2022-08-16T03:18:14;11.82;;;6.22;;
62740;SDS011;48790;55.656;37.702;2022-08-16T03:20:41;13.27;;;6.47;;
62740;SDS011;48790;55.656;37.702;2022-08-16T03:23:07;12.38;;;6.25;;
62740;SDS011;48790;55.656;37.702;2022-08-16T03:25:36;16.48;;;7.05;;
62740;SDS011;48790;55.656;37.702;2022-08-16T03:28:03;10.88;;;6.80;;
62740;SDS011;48790;55.656;37.702;2022-08-16T03:30:31;12.27;;;6.57;;
62740;SDS011;48790;55.656;37.702;2022-08-16T03:33:02;11.88;;;6.15;;
62740;SDS011;48790;55.656;37.702;2022-08-16T03:38:09;12.30;;;6.22;;
62740;SDS011;48790;55.656;37.702;2022-08-16T03:40:43;18.50;;;6.50;;
62740;SDS011;48790;55.656;37.702;2022-08-16T03:43:10;16.85;;;6.40;;
62740;SDS011;48790;55.656;37.702;2022-08-16T03:45:37;14.30;;;6.68;;
62740;SDS011;48790;55.656;37.702;2022-08-16T03:48:06;13.55;;;7.00;;
62740;SDS011;48790;55.656;37.702;2022-08-16T03:50:33;16.50;;;6.28;;
62740;SDS011;48790;55.656;37.702;2022-08-16T03:53:00;12.82;;;6.25;;
62740;SDS011;48790;55.656;37.702;2022-08-16T03:55:27;18.20;;;6.55;;
62740;SDS011;48790;55.656;37.702;2022-08-16T03:57:53;19.92;;;6.70;;
62740;SDS011;48790;55.656;37.702;2022-08-16T04:00:25;11.65;;;6.07;;
62740;SDS011;48790;55.656;37.702;2022-08-16T04:02:56;18.15;;;6.75;;
62740;SDS011;48790;55.656;37.702;2022-08-16T04:05:24;15.13;;;6.07;;
62740;SDS011;48790;55.656;37.702;2022-08-16T04:07:50;11.65;;;6.80;;
62740;SDS011;48790;55.656;37.702;2022-08-16T04:10:16;9.93;;;6.05;;
62740;SDS011;48790;55.656;37.702;2022-08-16T04:12:44;11.55;;;5.63;;
62740;SDS011;48790;55.656;37.702;2022-08-16T04:15:11;21.60;;;6.20;;
62740;SDS011;48790;55.656;37.702;2022-08-16T04:17:46;20.52;;;6.82;;
62740;SDS011;48790;55.656;37.702;2022-08-16T04:20:12;15.02;;;6.68;;
62740;SDS011;48790;55.656;37.702;2022-08-16T04:22:39;14.48;;;6.38;;
62740;SDS011;48790;55.656;37.702;2022-08-16T04:25:08;17.00;;;6.65;;
62740;SDS011;48790;55.656;37.702;2022-08-16T04:27:36;17.30;;;6.75;;
62740;SDS011;48790;55.656;37.702;2022-08-16T04:30:05;14.93;;;6.72;;
62740;SDS011;48790;55.656;37.702;2022-08-16T04:32:38;19.17;;;6.70;;
62740;SDS011;48790;55.656;37.702;2022-08-16T04:35:06;12.27;;;6.00;;
62740;SDS011;48790;55.656;37.702;2022-08-16T04:37:34;19.10;;;6.88;;
62740;SDS011;48790;55.656;37.702;2022-08-16T04:40:10;19.67;;;6.47;;
62740;SDS011;48790;55.656;37.702;2022-08-16T04:42:37;18.27;;;6.78;;
62740;SDS011;48790;55.656;37.702;2022-08-16T04:45:05;15.77;;;6.47;;
62740;SDS011;48790;55.656;37.702;2022-08-16T04:47:33;15.40;;;7.03;;
62740;SDS011;48790;55.656;37.702;2022-08-16T04:50:02;17.17;;;6.35;;
62740;SDS011;48790;55.656;37.702;2022-08-16T04:52:30;14.30;;;6.93;;
62740;SDS011;48790;55.656;37.702;2022-08-16T04:54:56;17.40;;;6.75;;
62740;SDS011;48790;55.656;37.702;2022-08-16T04:57:22;18.92;;;6.78;;
62740;SDS011;48790;55.656;37.702;2022-08-16T04:59:48;13.52;;;7.20;;
62740;SDS011;48790;55.656;37.702;2022-08-16T05:02:14;23.77;;;7.50;;
62740;SDS011;48790;55.656;37.702;2022-08-16T05:04:40;15.75;;;6.85;;
62740;SDS011;48790;55.656;37.702;2022-08-16T05:07:07;16.90;;;6.68;;
62740;SDS011;48790;55.656;37.702;2022-08-16T05:09:53;19.42;;;6.40;;
62740;SDS011;48790;55.656;37.702;2022-08-16T05:12:20;18.50;;;6.72;;
62740;SDS011;48790;55.656;37.702;2022-08-16T05:14:46;15.35;;;6.32;;
62740;SDS011;48790;55.656;37.702;2022-08-16T05:17:16;17.67;;;7.22;;
62740;SDS011;48790;55.656;37.702;2022-08-16T05:19:43;15.90;;;6.25;;
62740;SDS011;48790;55.656;37.702;2022-08-16T05:22:14;17.98;;;6.25;;
62740;SDS011;48790;55.656;37.702;2022-08-16T05:24:42;16.13;;;6.30;;
62740;SDS011;48790;55.656;37.702;2022-08-16T05:27:08;22.15;;;5.93;;
62740;SDS011;48790;55.656;37.702;2022-08-16T05:29:36;16.75;;;6.50;;
62740;SDS011;48790;55.656;37.702;2022-08-16T05:32:07;13.40;;;6.23;;
62740;SDS011;48790;55.656;37.702;2022-08-16T05:34:33;17.08;;;6.40;;
62740;SDS011;48790;55.656;37.702;2022-08-16T05:36:59;12.52;;;6.15;;
62740;SDS011;48790;55.656;37.702;2022-08-16T05:39:33;15.10;;;5.88;;
62740;SDS011;48790;55.656;37.702;2022-08-16T05:41:59;16.90;;;6.47;;
62740;SDS011;48790;55.656;37.702;2022-08-16T05:44:25;18.73;;;6.20;;
62740;SDS011;48790;55.656;37.702;2022-08-16T05:46:56;16.33;;;5.85;;
62740;SDS011;48790;55.656;37.702;2022-08-16T05:49:24;15.20;;;5.85;;
62740;SDS011;48790;55.656;37.702;2022-08-16T05:51:56;14.60;;;5.70;;
62740;SDS011;48790;55.656;37.702;2022-08-16T05:54:24;14.95;;;6.00;;
62740;SDS011;48790;55.656;37.702;2022-08-16T05:56:56;15.98;;;5.75;;
62740;SDS011;48790;55.656;37.702;2022-08-16T05:59:23;19.77;;;5.95;;
62740;SDS011;48790;55.656;37.702;2022-08-16T06:01:50;13.02;;;5.68;;
62740;SDS011;48790;55.656;37.702;2022-08-16T06:04:20;24.15;;;6.38;;
62740;SDS011;48790;55.656;37.702;2022-08-16T06:06:49;11.20;;;5.72;;
62740;SDS011;48790;55.656;37.702;2022-08-16T06:09:17;15.45;;;5.60;;
62740;SDS011;48790;55.656;37.702;2022-08-16T06:11:43;21.02;;;5.88;;
62740;SDS011;48790;55.656;37.702;2022-08-16T06:14:11;16.00;;;6.38;;
62740;SDS011;48790;55.656;37.702;2022-08-16T06:16:41;18.52;;;5.82;;
62740;SDS011;48790;55.656;37.702;2022-08-16T06:19:07;9.95;;;5.80;;
62740;SDS011;48790;55.656;37.702;2022-08-16T06:21:38;13.15;;;5.65;;
62740;SDS011;48790;55.656;37.702;2022-08-16T06:24:04;13.63;;;5.78;;
62740;SDS011;48790;55.656;37.702;2022-08-16T06:26:33;11.80;;;6.03;;
62740;SDS011;48790;55.656;37.702;2022-08-16T06:28:59;15.82;;;5.47;;
62740;SDS011;48790;55.656;37.702;2022-08-16T06:31:33;9.88;;;5.22;;
62740;SDS011;48790;55.656;37.702;2022-08-16T06:33:59;16.85;;;5.15;;
62740;SDS011;48790;55.656;37.702;2022-08-16T06:36:30;16.98;;;5.30;;
62740;SDS011;48790;55.656;37.702;2022-08-16T06:39:06;15.00;;;5.10;;
62740;SDS011;48790;55.656;37.702;2022-08-16T06:41:45;11.32;;;5.07;;
62740;SDS011;48790;55.656;37.702;2022-08-16T06:44:48;13.05;;;4.88;;
62740;SDS011;48790;55.656;37.702;2022-08-16T06:47:40;8.60;;;4.72;;
62740;SDS011;48790;55.656;37.702;2022-08-16T06:50:06;16.35;;;5.43;;
62740;SDS011;48790;55.656;37.702;2022-08-16T06:52:43;14.15;;;4.72;;
62740;SDS011;48790;55.656;37.702;2022-08-16T06:55:12;11.48;;;4.20;;
62740;SDS011;48790;55.656;37.702;2022-08-16T06:57:43;12.52;;;4.65;;
62740;SDS011;48790;55.656;37.702;2022-08-16T07:00:10;9.57;;;4.25;;
62740;SDS011;48790;55.656;37.702;2022-08-16T07:02:45;9.60;;;4.32;;
62740;SDS011;48790;55.656;37.702;2022-08-16T07:05:12;17.80;;;4.38;;
62740;SDS011;48790;55.656;37.702;2022-08-16T07:07:43;18.75;;;4.60;;
62740;SDS011;48790;55.656;37.702;2022-08-16T07:10:10;12.63;;;4.05;;
62740;SDS011;48790;55.656;37.702;2022-08-16T07:12:37;11.40;;;4.03;;
62740;SDS011;48790;55.656;37.702;2022-08-16T07:15:03;13.35;;;3.83;;
62740;SDS011;48790;55.656;37.702;2022-08-16T07:17:31;13.52;;;3.88;;
62740;SDS011;48790;55.656;37.702;2022-08-16T07:19:59;11.95;;;3.90;;
62740;SDS011;48790;55.656;37.702;2022-08-16T07:22:30;13.30;;;4.10;;
62740;SDS011;48790;55.656;37.702;2022-08-16T07:24:57;4.82;;;3.40;;
62740;SDS011;48790;55.656;37.702;2022-08-16T07:27:23;5.90;;;3.42;;
62740;SDS011;48790;55.656;37.702;2022-08-16T07:29:50;8.57;;;3.47;;
62740;SDS011;48790;55.656;37.702;2022-08-16T07:32:17;6.00;;;3.50;;
62740;SDS011;48790;55.656;37.702;2022-08-16T07:34:45;17.48;;;3.63;;
62740;SDS011;48790;55.656;37.702;2022-08-16T07:37:12;27.95;;;3.63;;
62740;SDS011;48790;55.656;37.702;2022-08-16T07:40:04;23.20;;;4.20;;
62740;SDS011;48790;55.656;37.702;2022-08-16T07:42:30;19.42;;;3.88;;
62740;SDS011;48790;55.656;37.702;2022-08-16T07:44:57;18.92;;;3.85;;
62740;SDS011;48790;55.656;37.702;2022-08-16T07:47:23;10.88;;;3.30;;
62740;SDS011;48790;55.656;37.702;2022-08-16T07:49:50;9.70;;;2.97;;
62740;SDS011;48790;55.656;37.702;2022-08-16T07:52:16;13.38;;;3.63;;
62740;SDS011;48790;55.656;37.702;2022-08-16T07:54:42;6.53;;;3.10;;
62740;SDS011;48790;55.656;37.702;2022-08-16T07:57:10;10.73;;;3.20;;
62740;SDS011;48790;55.656;37.702;2022-08-16T07:59:37;12.70;;;3.55;;
62740;SDS011;48790;55.656;37.702;2022-08-16T08:02:03;10.30;;;3.40;;
62740;SDS011;48790;55.656;37.702;2022-08-16T08:04:31;5.88;;;3.13;;
62740;SDS011;48790;55.656;37.702;2022-08-16T08:06:58;10.70;;;2.90;;
62740;SDS011;48790;55.656;37.702;2022-08-16T08:09:24;11.13;;;3.60;;
62740;SDS011;48790;55.656;37.702;2022-08-16T08:11:53;6.10;;;3.17;;
62740;SDS011;48790;55.656;37.702;2022-08-16T08:14:19;13.30;;;3.90;;
62740;SDS011;48790;55.656;37.702;2022-08-16T08:16:48;9.77;;;3.30;;
62740;SDS011;48790;55.656;37.702;2022-08-16T08:19:24;8.88;;;3.00;;
62740;SDS011;48790;55.656;37.702;2022-08-16T08:21:51;13.32;;;3.60;;
62740;SDS011;48790;55.656;37.702;2022-08-16T08:24:22;10.93;;;3.13;;
62740;SDS011;48790;55.656;37.702;2022-08-16T08:26:50;7.50;;;3.72;;
62740;SDS011;48790;55.656;37.702;2022-08-16T08:29:17;18.92;;;3.50;;
62740;SDS011;48790;55.656;37.702;2022-08-16T08:31:43;8.27;;;3.63;;
62740;SDS011;48790;55.656;37.702;2022-08-16T08:34:10;9.93;;;3.50;;
62740;SDS011;48790;55.656;37.702;2022-08-16T08:36:36;11.88;;;3.45;;
62740;SDS011;48790;55.656;37.702;2022-08-16T08:39:14;5.28;;;2.78;;
62740;SDS011;48790;55.656;37.702;2022-08-16T08:41:41;10.20;;;3.08;;
62740;SDS011;48790;55.656;37.702;2022-08-16T08:44:10;8.95;;;3.13;;
62740;SDS011;48790;55.656;37.702;2022-08-16T08:46:36;11.18;;;3.30;;
62740;SDS011;48790;55.656;37.702;2022-08-16T08:49:04;5.82;;;2.88;;
62740;SDS011;48790;55.656;37.702;2022-08-16T08:51:37;9.43;;;3.15;;
62740;SDS011;48790;55.656;37.702;2022-08-16T08:54:07;8.30;;;3.05;;
62740;SDS011;48790;55.656;37.702;2022-08-16T08:56:39;9.07;;;3.15;;
62740;SDS011;48790;55.656;37.702;2022-08-16T08:59:17;12.32;;;3.58;;
62740;SDS011;48790;55.656;37.702;2022-08-16T09:01:44;11.57;;;3.28;;
62740;SDS011;48790;55.656;37.702;2022-08-16T09:04:11;9.80;;;3.35;;
62740;SDS011;48790;55.656;37.702;2022-08-16T09:06:38;6.53;;;3.20;;
62740;SDS011;48790;55.656;37.702;2022-08-16T09:09:04;9.90;;;3.17;;
62740;SDS011;48790;55.656;37.702;2022-08-16T09:11:32;7.25;;;3.30;;
62740;SDS011;48790;55.656;37.702;2022-08-16T09:13:58;11.63;;;3.22;;
62740;SDS011;48790;55.656;37.702;2022-08-16T09:16:24;11.43;;;3.58;;
62740;SDS011;48790;55.656;37.702;2022-08-16T09:18:50;7.65;;;3.05;;
62740;SDS011;48790;55.656;37.702;2022-08-16T09:21:17;9.10;;;3.50;;
62740;SDS011;48790;55.656;37.702;2022-08-16T09:23:44;13.32;;;3.67;;
62740;SDS011;48790;55.656;37.702;2022-08-16T09:26:11;7.32;;;3.10;;
62740;SDS011;48790;55.656;37.702;2022-08-16T09:28:41;7.07;;;3.38;;
62740;SDS011;48790;55.656;37.702;2022-08-16T09:31:20;9.68;;;3.40;;
62740;SDS011;48790;55.656;37.702;2022-08-16T09:33:47;7.55;;;3.40;;
62740;SDS011;48790;55.656;37.702;2022-08-16T09:36:13;10.25;;;3.28;;
62740;SDS011;48790;55.656;37.702;2022-08-16T09:38:40;10.48;;;3.40;;
62740;SDS011;48790;55.656;37.702;2022-08-16T09:41:07;12.80;;;3.55;;
62740;SDS011;48790;55.656;37.702;2022-08-16T09:43:35;9.50;;;3.50;;
62740;SDS011;48790;55.656;37.702;2022-08-16T09:46:02;12.20;;;3.20;;
62740;SDS011;48790;55.656;37.702;2022-08-16T09:48:33;7.18;;;3.25;;
62740;SDS011;48790;55.656;37.702;2022-08-16T09:51:00;7.05;;;3.47;;
62740;SDS011;48790;55.656;37.702;2022-08-16T09:53:26;15.88;;;3.33;;
62740;SDS011;48790;55.656;37.702;2022-08-16T09:55:54;9.60;;;3.40;;
62740;SDS011;48790;55.656;37.702;2022-08-16T09:58:21;12.25;;;3.30;;
62740;SDS011;48790;55.656;37.702;2022-08-16T10:00:49;11.15;;;3.90;;
62740;SDS011;48790;55.656;37.702;2022-08-16T10:03:16;10.23;;;3.40;;
62740;SDS011;48790;55.656;37.702;2022-08-16T10:05:42;8.05;;;3.40;;
62740;SDS011;48790;55.656;37.702;2022-08-16T10:08:09;11.43;;;3.63;;
62740;SDS011;48790;55.656;37.702;2022-08-16T10:10:35;12.13;;;3.67;;
62740;SDS011;48790;55.656;37.702;2022-08-16T10:13:06;7.33;;;3.40;;
62740;SDS011;48790;55.656;37.702;2022-08-16T10:15:48;11.25;;;4.10;;
62740;SDS011;48790;55.656;37.702;2022-08-16T10:18:15;8.30;;;3.80;;
62740;SDS011;48790;55.656;37.702;2022-08-16T10:20:44;6.53;;;3.38;;
62740;SDS011;48790;55.656;37.702;2022-08-16T10:23:11;11.48;;;3.88;;
62740;SDS011;48790;55.656;37.702;2022-08-16T10:25:41;7.63;;;3.78;;
62740;SDS011;48790;55.656;37.702;2022-08-16T10:28:09;11.27;;;3.58;;
62740;SDS011;48790;55.656;37.702;2022-08-16T10:30:36;10.35;;;3.72;;
62740;SDS011;48790;55.656;37.702;2022-08-16T10:33:03;14.13;;;3.92;;
62740;SDS011;48790;55.656;37.702;2022-08-16T10:35:30;9.40;;;4.03;;
62740;SDS011;48790;55.656;37.702;2022-08-16T10:37:56;21.45;;;4.60;;
62740;SDS011;48790;55.656;37.702;2022-08-16T10:40:23;11.45;;;3.75;;
62740;SDS011;48790;55.656;37.702;2022-08-16T10:42:49;11.40;;;3.80;;
62740;SDS011;48790;55.656;37.702;2022-08-16T10:45:15;6.43;;;3.55;;
62740;SDS011;48790;55.656;37.702;2022-08-16T10:47:42;10.15;;;3.97;;
62740;SDS011;48790;55.656;37.702;2022-08-16T10:50:09;7.35;;;4.03;;
62740;SDS011;48790;55.656;37.702;2022-08-16T10:52:35;5.68;;;3.70;;
62740;SDS011;48790;55.656;37.702;2022-08-16T10:55:02;7.63;;;4.13;;
62740;SDS011;48790;55.656;37.702;2022-08-16T10:57:29;12.05;;;4.03;;
62740;SDS011;48790;55.656;37.702;2022-08-16T10:59:57;6.18;;;4.05;;
62740;SDS011;48790;55.656;37.702;2022-08-16T11:02:24;5.88;;;3.78;;
62740;SDS011;48790;55.656;37.702;2022-08-16T11:04:50;6.85;;;3.67;;
62740;SDS011;48790;55.656;37.702;2022-08-16T11:07:18;12.25;;;4.40;;
62740;SDS011;48790;55.656;37.702;2022-08-16T11:09:44;8.27;;;4.05;;
62740;SDS011;48790;55.656;37.702;2022-08-16T11:12:10;6.93;;;3.95;;
62740;SDS011;48790;55.656;37.702;2022-08-16T11:14:37;10.65;;;4.20;;
62740;SDS011;48790;55.656;37.702;2022-08-16T11:17:03;7.55;;;4.30;;
62740;SDS011;48790;55.656;37.702;2022-08-16T11:19:32;9.27;;;4.00;;
62740;SDS011;48790;55.656;37.702;2022-08-16T11:21:58;10.57;;;4.32;;
62740;SDS011;48790;55.656;37.702;2022-08-16T11:24:25;11.07;;;4.22;;
62740;SDS011;48790;55.656;37.702;2022-08-16T11:26:52;10.82;;;4.60;;
62740;SDS011;48790;55.656;37.702;2022-08-16T11:29:19;10.15;;;3.92;;
62740;SDS011;48790;55.656;37.702;2022-08-16T11:31:46;12.98;;;4.35;;
62740;SDS011;48790;55.656;37.702;2022-08-16T11:34:14;10.57;;;4.13;;
62740;SDS011;48790;55.656;37.702;2022-08-16T11:36:41;4.97;;;3.63;;
62740;SDS011;48790;55.656;37.702;2022-08-16T11:39:07;13.25;;;5.00;;
62740;SDS011;48790;55.656;37.702;2022-08-16T11:41:33;14.35;;;4.78;;
62740;SDS011;48790;55.656;37.702;2022-08-16T11:44:03;7.32;;;3.78;;
62740;SDS011;48790;55.656;37.702;2022-08-16T11:46:31;6.20;;;3.60;;
62740;SDS011;48790;55.656;37.702;2022-08-16T11:48:59;12.32;;;4.07;;
62740;SDS011;48790;55.656;37.702;2022-08-16T11:51:26;9.50;;;3.97;;
62740;SDS011;48790;55.656;37.702;2022-08-16T11:53:52;8.38;;;4.00;;
62740;SDS011;48790;55.656;37.702;2022-08-16T11:56:19;11.95;;;3.90;;
62740;SDS011;48790;55.656;37.702;2022-08-16T11:58:45;5.10;;;3.88;;
62740;SDS011;48790;55.656;37.702;2022-08-16T12:01:10;8.25;;;4.20;;
62740;SDS011;48790;55.656;37.702;2022-08-16T12:03:38;6.22;;;4.20;;
62740;SDS011;48790;55.656;37.702;2022-08-16T12:06:09;4.60;;;3.85;;
62740;SDS011;48790;55.656;37.702;2022-08-16T12:08:39;7.90;;;4.10;;
62740;SDS011;48790;55.656;37.702;2022-08-16T12:11:06;11.20;;;3.70;;
62740;SDS011;48790;55.656;37.702;2022-08-16T12:13:32;14.32;;;4.15;;
62740;SDS011;48790;55.656;37.702;2022-08-16T12:15:59;7.95;;;4.30;;
62740;SDS011;48790;55.656;37.702;2022-08-16T12:18:25;8.70;;;4.07;;
62740;SDS011;48790;55.656;37.702;2022-08-16T12:20:51;8.85;;;4.53;;
62740;SDS011;48790;55.656;37.702;2022-08-16T12:23:17;10.35;;;3.88;;
62740;SDS011;48790;55.656;37.702;2022-08-16T12:25:44;8.93;;;4.10;;
62740;SDS011;48790;55.656;37.702;2022-08-16T12:28:10;11.18;;;4.40;;
62740;SDS011;48790;55.656;37.702;2022-08-16T12:30:38;9.30;;;3.80;;
62740;SDS011;48790;55.656;37.702;2022-08-16T12:33:07;7.15;;;4.32;;
62740;SDS011;48790;55.656;37.702;2022-08-16T12:35:35;9.25;;;4.53;;
62740;SDS011;48790;55.656;37.702;2022-08-16T12:38:03;17.48;;;3.85;;
62740;SDS011;48790;55.656;37.702;2022-08-16T12:40:31;10.02;;;4.38;;
62740;SDS011;48790;55.656;37.702;2022-08-16T12:43:00;16.88;;;4.50;;
62740;SDS011;48790;55.656;37.702;2022-08-16T12:45:29;13.38;;;4.72;;
62740;SDS011;48790;55.656;37.702;2022-08-16T12:47:58;12.00;;;4.10;;
62740;SDS011;48790;55.656;37.702;2022-08-16T12:50:43;6.82;;;4.30;;
62740;SDS011;48790;55.656;37.702;2022-08-16T12:53:09;11.50;;;4.50;;
62740;SDS011;48790;55.656;37.702;2022-08-16T12:55:36;11.75;;;4.63;;
62740;SDS011;48790;55.656;37.702;2022-08-16T12:58:03;9.82;;;4.03;;
62740;SDS011;48790;55.656;37.702;2022-08-16T13:00:31;7.85;;;4.53;;
62740;SDS011;48790;55.656;37.702;2022-08-16T13:02:58;11.85;;;4.40;;
62740;SDS011;48790;55.656;37.702;2022-08-16T13:05:27;12.68;;;4.55;;
62740;SDS011;48790;55.656;37.702;2022-08-16T13:07:55;7.07;;;4.55;;
62740;SDS011;48790;55.656;37.702;2022-08-16T13:10:23;19.90;;;4.85;;
62740;SDS011;48790;55.656;37.702;2022-08-16T13:12:54;8.70;;;4.27;;
62740;SDS011;48790;55.656;37.702;2022-08-16T13:15:24;16.02;;;4.68;;
62740;SDS011;48790;55.656;37.702;2022-08-16T13:17:51;10.30;;;4.70;;
62740;SDS011;48790;55.656;37.702;2022-08-16T13:20:19;8.85;;;4.80;;
62740;SDS011;48790;55.656;37.702;2022-08-16T13:22:52;10.25;;;4.50;;
62740;SDS011;48790;55.656;37.702;2022-08-16T13:25:33;7.35;;;4.88;;
62740;SDS011;48790;55.656;37.702;2022-08-16T13:28:00;8.35;;;4.35;;
62740;SDS011;48790;55.656;37.702;2022-08-16T13:30:28;7.47;;;4.50;;
62740;SDS011;48790;55.656;37.702;2022-08-16T13:32:55;8.57;;;5.13;;
62740;SDS011;48790;55.656;37.702;2022-08-16T13:35:22;10.20;;;5.03;;
62740;SDS011;48790;55.656;37.702;2022-08-16T13:37:48;11.15;;;5.30;;
62740;SDS011;48790;55.656;37.702;2022-08-16T13:40:15;10.18;;;5.20;;
62740;SDS011;48790;55.656;37.702;2022-08-16T13:42:42;15.05;;;5.25;;
62740;SDS011;48790;55.656;37.702;2022-08-16T13:45:09;9.55;;;4.65;;
62740;SDS011;48790;55.656;37.702;2022-08-16T13:47:36;10.93;;;5.65;;
62740;SDS011;48790;55.656;37.702;2022-08-16T13:50:06;11.57;;;5.22;;
62740;SDS011;48790;55.656;37.702;2022-08-16T13:52:32;7.70;;;4.97;;
62740;SDS011;48790;55.656;37.702;2022-08-16T13:54:59;9.95;;;4.97;;
62740;SDS011;48790;55.656;37.702;2022-08-16T13:57:25;8.05;;;5.35;;
62740;SDS011;48790;55.656;37.702;2022-08-16T13:59:52;9.52;;;5.18;;
62740;SDS011;48790;55.656;37.702;2022-08-16T14:02:18;15.20;;;5.97;;
62740;SDS011;48790;55.656;37.702;2022-08-16T14:04:46;9.20;;;5.38;;
62740;SDS011;48790;55.656;37.702;2022-08-16T14:07:13;12.68;;;5.57;;
62740;SDS011;48790;55.656;37.702;2022-08-16T14:09:40;10.38;;;5.60;;
62740;SDS011;48790;55.656;37.702;2022-08-16T14:12:24;9.75;;;5.65;;
62740;SDS011;48790;55.656;37.702;2022-08-16T14:14:53;10.55;;;6.20;;
62740;SDS011;48790;55.656;37.702;2022-08-16T14:17:19;10.93;;;5.80;;
62740;SDS011;48790;55.656;37.702;2022-08-16T14:19:46;11.85;;;5.40;;
62740;SDS011;48790;55.656;37.702;2022-08-16T14:22:17;11.45;;;7.35;;
62740;SDS011;48790;55.656;37.702;2022-08-16T14:24:51;20.00;;;6.97;;
62740;SDS011;48790;55.656;37.702;2022-08-16T14:27:19;13.00;;;7.70;;
62740;SDS011;48790;55.656;37.702;2022-08-16T14:29:46;10.15;;;7.40;;
62740;SDS011;48790;55.656;37.702;2022-08-16T14:32:13;11.65;;;7.97;;
62740;SDS011;48790;55.656;37.702;2022-08-16T14:34:40;14.18;;;8.00;;
62740;SDS011;48790;55.656;37.702;2022-08-16T14:37:06;12.23;;;7.95;;